South Amherst, Ohio
Current Conditions -  °F | °C
As of 2:53 AM on Sunday 23 Nov 2014 (Local Time) from KLPR Reporting Station
Overcast Overcast  
Wind Chill: 50°   Ceiling: 4200
Heat Index: 50°   Visibility: 10mi
Dew Point: 35°   Wind: 10mph
Humidity: 57%   Direction: 210°SSW
Pressure: 30.02"   Gusts: NA
Location:  41.3705°N, 82.2583°W
Report Text: KLPR 230753Z AUTO 21009KT 10SM OVC042 10/02 A3002 RMK AO2 SLP170 T01000017 TSNO
Loading
Personal Weather Stations






























Interactive Weather Map New forecast layout! Learn more

10-Day Weather Forecast

Advertisements
Track Severe Weather on mobile